Time;durP1;ratioP1;P1;durP2;ratioP2;P2;SDS_P1;SDS_P2;PMS_P1;PMS_P2;Temp;Humidity;BMP_temperature;BMP_pressure;BME280_temperature;BME280_humidity;BME280_pressure;Samples;Min_cycle;Max_cycle;Signal;HPM_P1;HPM_P2
2021/01/07 00:02:28;;;;;;;37.90;20.20;;;;;;;2.11;100.00;100000.13;5117520;28;20255;-39
2021/01/07 00:05:15;;;;;;;38.60;21.17;;;;;;;2.00;100.00;99996.47;5118056;28;20195;-36
2021/01/07 00:08:02;;;;;;;36.43;20.20;;;;;;;2.25;100.00;99995.28;5117697;28;20194;-36
2021/01/07 00:10:48;;;;;;;38.27;21.23;;;;;;;2.16;100.00;99990.03;5117768;28;20238;-37
2021/01/07 00:13:35;;;;;;;41.03;21.37;;;;;;;2.12;100.00;99988.22;5117843;28;20287;-34
2021/01/07 00:16:22;;;;;;;42.60;21.80;;;;;;;2.11;100.00;99989.06;5117764;28;20189;-39
2021/01/07 00:19:08;;;;;;;35.83;20.60;;;;;;;1.93;100.00;99987.84;5117693;28;20465;-40
2021/01/07 00:21:56;;;;;;;38.23;20.90;;;;;;;1.96;100.00;99981.97;5118137;28;20194;-42
2021/01/07 00:24:43;;;;;;;37.90;21.17;;;;;;;2.25;100.00;99990.19;5117608;28;20198;-38
2021/01/07 00:27:31;;;;;;;38.30;20.93;;;;;;;2.26;100.00;99981.72;5117987;28;20265;-36
2021/01/07 00:30:19;;;;;;;41.67;22.03;;;;;;;1.98;100.00;99980.31;5117738;28;20198;-38
2021/01/07 00:33:05;;;;;;;42.20;21.90;;;;;;;2.05;100.00;99979.56;5117679;28;20190;-38
2021/01/07 00:35:51;;;;;;;38.83;22.10;;;;;;;2.11;100.00;99982.28;5117635;28;20294;-39
2021/01/07 00:38:40;;;;;;;41.03;22.37;;;;;;;1.77;100.00;99977.28;5117974;28;20201;-34
2021/01/07 00:41:28;;;;;;;39.07;21.90;;;;;;;1.85;100.00;99979.16;5118309;28;20205;-38
2021/01/07 00:44:15;;;;;;;38.60;21.27;;;;;;;2.01;100.00;99976.09;5117857;28;20198;-36
2021/01/07 00:47:02;;;;;;;36.53;21.40;;;;;;;1.96;100.00;99976.84;5117663;28;20604;-39
2021/01/07 00:49:49;;;;;;;37.70;21.57;;;;;;;2.06;100.00;99976.19;5117973;28;20272;-38
2021/01/07 00:52:35;;;;;;;38.10;20.83;;;;;;;1.79;100.00;99963.75;5117357;28;20209;-40
2021/01/07 00:55:22;;;;;;;41.00;20.07;;;;;;;1.83;100.00;99968.06;5117613;28;20239;-38
2021/01/07 00:58:09;;;;;;;36.33;19.77;;;;;;;1.88;100.00;99969.03;5117510;28;20233;-35
2021/01/07 01:00:56;;;;;;;36.80;18.97;;;;;;;1.80;100.00;99967.16;5117569;28;20295;-36
2021/01/07 01:03:42;;;;;;;32.27;18.57;;;;;;;1.89;100.00;99968.22;5117218;28;20291;-36
2021/01/07 01:06:32;;;;;;;37.97;19.23;;;;;;;1.95;100.00;99965.78;5117642;28;20256;-41
2021/01/07 01:09:18;;;;;;;35.47;18.57;;;;;;;2.03;100.00;99968.47;5117701;28;20222;-37
2021/01/07 01:12:07;;;;;;;29.70;16.80;;;;;;;1.72;100.00;99962.75;5116982;28;20644;-40
2021/01/07 01:14:54;;;;;;;28.07;15.77;;;;;;;1.62;100.00;99971.00;5117370;28;20537;-34
2021/01/07 01:17:42;;;;;;;28.63;16.03;;;;;;;1.84;100.00;99966.38;5117573;28;20255;-39
2021/01/07 01:20:30;;;;;;;24.13;14.03;;;;;;;1.71;100.00;99971.22;5117291;28;20222;-35
2021/01/07 01:23:16;;;;;;;24.13;14.03;;;;;;;1.72;100.00;99965.31;5116815;28;20191;-36
2021/01/07 01:26:02;;;;;;;26.83;14.47;;;;;;;1.86;100.00;99970.69;5117216;28;20201;-36
2021/01/07 01:28:49;;;;;;;27.30;14.80;;;;;;;1.91;100.00;99975.88;5117137;28;20323;-39
2021/01/07 01:31:38;;;;;;;25.70;15.60;;;;;;;1.97;100.00;99964.13;5117234;28;20626;-39
2021/01/07 01:34:25;;;;;;;28.40;15.27;;;;;;;1.89;100.00;99970.75;5117323;28;20288;-39
2021/01/07 01:37:11;;;;;;;23.50;14.63;;;;;;;1.83;100.00;99964.66;5117048;28;20199;-38
2021/01/07 01:40:00;;;;;;;21.60;12.60;;;;;;;1.71;100.00;99975.47;5116808;28;20283;-40
2021/01/07 01:42:47;;;;;;;17.63;12.30;;;;;;;1.65;100.00;99971.09;5117002;28;20607;-40
2021/01/07 01:45:34;;;;;;;19.30;12.13;;;;;;;1.35;100.00;99971.25;5116513;28;20257;-39
2021/01/07 01:48:22;;;;;;;22.40;12.97;;;;;;;1.84;100.00;99977.44;5118814;28;20503;-36
2021/01/07 01:51:09;;;;;;;18.60;11.17;;;;;;;1.58;100.00;99971.78;5120196;28;20194;-35
2021/01/07 01:53:55;;;;;;;24.30;13.07;;;;;;;1.84;100.00;99972.34;5120524;28;20676;-38
2021/01/07 01:56:45;;;;;;;21.70;12.07;;;;;;;1.98;100.00;99968.41;5120266;28;20210;-34
2021/01/07 01:59:34;;;;;;;19.83;12.03;;;;;;;1.99;100.00;99965.03;5120473;28;20535;-36
2021/01/07 02:02:20;;;;;;;22.27;12.77;;;;;;;2.05;100.00;99962.59;5120406;28;20610;-37
2021/01/07 02:05:09;;;;;;;18.97;12.60;;;;;;;2.08;100.00;99962.66;5119980;28;20341;-37
2021/01/07 02:08:00;;;;;;;20.37;11.90;;;;;;;2.32;100.00;99957.19;5120467;28;20195;-37
2021/01/07 02:10:47;;;;;;;19.60;11.97;;;;;;;2.15;100.00;99973.84;5120218;28;20327;-38
2021/01/07 02:13:34;;;;;;;19.37;12.10;;;;;;;2.07;100.00;99970.28;5120558;28;20492;-35
2021/01/07 02:16:21;;;;;;;20.57;12.80;;;;;;;1.93;100.00;99967.44;5120238;28;20611;-36
2021/01/07 02:19:07;;;;;;;21.43;12.77;;;;;;;2.00;100.00;99970.97;5120033;28;20238;-34
2021/01/07 02:21:54;;;;;;;18.80;11.47;;;;;;;1.85;100.00;99968.97;5120067;28;20198;-36
2021/01/07 02:24:40;;;;;;;21.20;12.40;;;;;;;2.10;100.00;99966.94;5120128;28;20190;-37
2021/01/07 02:27:26;;;;;;;18.30;11.27;;;;;;;2.02;100.00;99964.22;5120069;28;20191;-39
2021/01/07 02:30:14;;;;;;;16.93;10.73;;;;;;;2.34;100.00;99958.06;5120307;28;20492;-34
2021/01/07 02:33:00;;;;;;;17.73;11.30;;;;;;;2.38;100.00;99964.09;5119759;28;20194;-37
2021/01/07 02:35:46;;;;;;;22.73;12.17;;;;;;;2.19;100.00;99957.78;5119571;28;20254;-34
2021/01/07 02:38:33;;;;;;;18.50;11.10;;;;;;;2.38;100.00;99957.31;5118846;28;20206;-38
2021/01/07 02:41:19;;;;;;;18.83;11.00;;;;;;;2.35;100.00;99966.59;5119395;28;20471;-35
2021/01/07 02:44:05;;;;;;;20.07;12.27;;;;;;;2.47;100.00;99961.72;5119569;28;20199;-37
2021/01/07 02:46:53;;;;;;;19.23;11.40;;;;;;;2.37;100.00;99958.13;5119621;28;20190;-35
2021/01/07 02:49:39;;;;;;;23.73;12.73;;;;;;;2.33;100.00;99956.34;5118896;28;20193;-37
2021/01/07 02:52:25;;;;;;;18.80;12.50;;;;;;;2.30;100.00;99955.44;5119682;28;20243;-38
2021/01/07 02:55:13;;;;;;;22.50;12.83;;;;;;;2.44;100.00;99956.53;5119593;28;20662;-36
2021/01/07 02:57:59;;;;;;;21.30;12.63;;;;;;;2.32;100.00;99952.06;5119118;28;20202;-37
2021/01/07 03:00:45;;;;;;;21.53;11.87;;;;;;;2.22;100.00;99957.81;5119191;28;20740;-35
2021/01/07 03:03:31;;;;;;;22.37;13.33;;;;;;;2.27;100.00;99951.13;5119291;28;20248;-35
2021/01/07 03:06:17;;;;;;;22.40;12.90;;;;;;;2.03;100.00;99953.19;5119446;28;20197;-37
2021/01/07 03:09:04;;;;;;;21.80;12.33;;;;;;;2.26;100.00;99949.41;5119338;28;20199;-36
2021/01/07 03:11:51;;;;;;;21.60;11.93;;;;;;;2.33;100.00;99952.94;5118586;28;20234;-36
2021/01/07 03:14:38;;;;;;;20.00;12.00;;;;;;;2.22;100.00;99947.59;5118709;28;20280;-35
2021/01/07 03:17:24;;;;;;;23.10;12.50;;;;;;;2.15;100.00;99953.44;5119325;28;20205;-35
2021/01/07 03:20:13;;;;;;;18.40;12.63;;;;;;;1.97;100.00;99958.19;5118743;28;20327;-37
2021/01/07 03:22:58;;;;;;;24.40;11.90;;;;;;;2.22;100.00;99945.06;5118640;28;20195;-36
2021/01/07 03:25:44;;;;;;;18.50;12.03;;;;;;;2.16;100.00;99937.31;5119150;28;20194;-44
2021/01/07 03:28:32;;;;;;;23.77;13.60;;;;;;;2.16;100.00;99934.75;5118767;28;20600;-37
2021/01/07 03:31:18;;;;;;;22.27;12.00;;;;;;;2.01;100.00;99931.88;5118726;28;20479;-36
2021/01/07 03:34:04;;;;;;;24.77;13.87;;;;;;;2.21;100.00;99930.59;5118734;28;20592;-34
2021/01/07 03:36:51;;;;;;;21.53;13.70;;;;;;;2.04;100.00;99930.25;5118769;28;20880;-38
2021/01/07 03:39:36;;;;;;;24.93;14.57;;;;;;;2.31;100.00;99918.88;5118210;28;20222;-36
2021/01/07 03:42:22;;;;;;;26.50;15.43;;;;;;;2.32;100.00;99921.47;5118346;28;20256;-37
2021/01/07 03:45:11;;;;;;;23.77;15.27;;;;;;;2.35;100.00;99913.00;5118371;28;20604;-39
2021/01/07 03:48:00;;;;;;;30.10;16.47;;;;;;;2.27;100.00;99912.84;5118699;28;20248;-38
2021/01/07 03:50:46;;;;;;;26.27;14.67;;;;;;;2.13;100.00;99908.31;5118468;28;20248;-36
2021/01/07 03:53:32;;;;;;;30.13;16.27;;;;;;;2.02;100.00;99905.53;5118587;28;20658;-36
2021/01/07 03:56:19;;;;;;;28.93;15.67;;;;;;;1.97;100.00;99908.03;5118661;28;20195;-35
2021/01/07 03:59:05;;;;;;;31.87;16.57;;;;;;;2.05;100.00;99903.91;5118059;28;20527;-32
2021/01/07 04:01:53;;;;;;;30.07;17.33;;;;;;;2.23;100.00;99908.50;5118175;28;20616;-35
2021/01/07 04:04:39;;;;;;;32.77;17.57;;;;;;;2.01;100.00;99914.03;5117949;28;20541;-34
2021/01/07 04:07:25;;;;;;;33.17;17.33;;;;;;;2.11;100.00;99907.44;5118379;28;20209;-33
2021/01/07 04:10:12;;;;;;;33.67;18.47;;;;;;;2.16;100.00;99898.19;5117062;28;20296;-34
2021/01/07 04:12:57;;;;;;;33.27;17.83;;;;;;;2.11;100.00;99894.69;5118314;28;20264;-34
2021/01/07 04:15:44;;;;;;;35.37;19.43;;;;;;;2.20;100.00;99895.69;5118196;28;20548;-33
2021/01/07 04:18:31;;;;;;;38.33;19.33;;;;;;;1.97;100.00;99902.94;5117831;28;20197;-37
2021/01/07 04:21:18;;;;;;;39.33;21.00;;;;;;;2.01;100.00;99896.16;5118053;28;20240;-32
2021/01/07 04:24:04;;;;;;;35.03;19.17;;;;;;;2.22;100.00;99904.25;5117808;28;20469;-39
2021/01/07 04:26:50;;;;;;;39.90;21.10;;;;;;;2.02;100.00;99896.22;5117646;28;20252;-35
2021/01/07 04:29:36;;;;;;;42.97;19.70;;;;;;;2.01;100.00;99888.53;5117824;28;20198;-34
2021/01/07 04:32:22;;;;;;;37.03;20.97;;;;;;;1.94;100.00;99887.56;5117740;28;20255;-34
2021/01/07 04:35:10;;;;;;;42.23;21.03;;;;;;;2.14;100.00;99887.09;5118137;28;20244;-36
2021/01/07 04:37:56;;;;;;;37.00;20.77;;;;;;;2.05;100.00;99886.06;5118268;28;20202;-34
2021/01/07 04:40:42;;;;;;;37.97;20.03;;;;;;;1.81;100.00;99887.28;5117624;28;20638;-35
2021/01/07 04:43:29;;;;;;;35.73;20.83;;;;;;;2.18;100.00;99889.72;5117679;28;20233;-35
2021/01/07 04:46:15;;;;;;;38.43;20.40;;;;;;;2.29;100.00;99880.56;5117857;28;20528;-38
2021/01/07 04:49:02;;;;;;;34.33;20.20;;;;;;;1.98;100.00;99881.69;5117615;28;20218;-34
2021/01/07 04:51:50;;;;;;;38.00;20.40;;;;;;;2.11;100.00;99882.78;5117642;28;20318;-32
2021/01/07 04:54:35;;;;;;;37.97;22.00;;;;;;;2.09;100.00;99889.53;5117442;28;20344;-34
2021/01/07 04:57:21;;;;;;;40.70;20.67;;;;;;;2.10;100.00;99882.75;5117773;28;20202;-37
2021/01/07 05:00:10;;;;;;;43.83;22.77;;;;;;;2.03;100.00;99882.63;5117470;28;20226;-37
2021/01/07 05:02:57;;;;;;;37.50;21.23;;;;;;;2.13;100.00;99882.81;5117263;28;20195;-35
2021/01/07 05:05:44;;;;;;;40.80;21.60;;;;;;;2.16;100.00;99881.19;5116995;28;20260;-32
2021/01/07 05:08:31;;;;;;;43.97;24.50;;;;;;;2.08;100.00;99878.47;5117440;28;20286;-32
2021/01/07 05:11:17;;;;;;;40.77;22.43;;;;;;;2.12;100.00;99874.31;5117277;28;20294;-36
2021/01/07 05:14:05;;;;;;;38.50;21.30;;;;;;;2.09;100.00;99876.78;5117549;28;20309;-36
2021/01/07 05:16:53;;;;;;;43.27;23.30;;;;;;;2.19;100.00;99878.69;5117334;28;20523;-34
2021/01/07 05:19:39;;;;;;;43.00;23.90;;;;;;;1.93;100.00;99877.34;5117161;28;20230;-34
2021/01/07 05:22:36;;;;;;;42.07;22.33;;;;;;;2.11;100.00;99880.22;5119333;28;20250;-34
2021/01/07 05:25:23;;;;;;;49.90;23.47;;;;;;;2.17;100.00;99871.84;5121393;28;20206;-34
2021/01/07 05:28:10;;;;;;;44.63;23.23;;;;;;;2.17;100.00;99874.38;5120910;28;20194;-35
2021/01/07 05:30:59;;;;;;;43.60;22.20;;;;;;;2.33;100.00;99878.94;5121200;28;20198;-34
2021/01/07 05:33:46;;;;;;;45.17;23.77;;;;;;;2.04;100.00;99871.59;5121041;28;20202;-34
2021/01/07 05:36:32;;;;;;;44.13;23.50;;;;;;;2.05;100.00;99869.91;5121140;28;20202;-32
2021/01/07 05:39:21;;;;;;;41.90;23.13;;;;;;;1.86;100.00;99866.13;5120831;28;20226;-33
2021/01/07 05:42:09;;;;;;;39.63;22.13;;;;;;;2.22;100.00;99865.97;5120724;28;20210;-33
2021/01/07 05:44:55;;;;;;;40.30;20.73;;;;;;;2.11;100.00;99857.28;5120946;28;20263;-36
2021/01/07 05:47:43;;;;;;;39.53;20.97;;;;;;;2.26;100.00;99866.88;5120064;28;20476;-35
2021/01/07 05:50:36;;;;;;;39.57;20.63;;;;;;;1.83;100.00;99862.66;5120353;28;20306;-33
2021/01/07 05:53:22;;;;;;;37.83;20.87;;;;;;;1.76;100.00;99860.84;5120703;28;20624;-31
2021/01/07 05:56:09;;;;;;;36.47;20.30;;;;;;;1.79;100.00;99864.31;5120468;28;20206;-33
2021/01/07 05:58:56;;;;;;;35.90;19.47;;;;;;;1.83;100.00;99865.22;5120206;28;20244;-35
2021/01/07 06:01:43;;;;;;;33.30;19.37;;;;;;;1.53;100.00;99862.91;5120715;28;20515;-32
2021/01/07 06:04:32;;;;;;;33.60;19.53;;;;;;;1.40;100.00;99864.34;5120590;28;20198;-37
2021/01/07 06:07:19;;;;;;;34.33;19.80;;;;;;;1.54;100.00;99869.75;5120291;28;20190;-33
2021/01/07 06:10:07;;;;;;;30.90;18.50;;;;;;;1.34;100.00;99867.63;5120194;28;20344;-33
2021/01/07 06:12:54;;;;;;;29.97;18.33;;;;;;;1.28;100.00;99872.59;5120243;28;20235;-32
2021/01/07 06:15:42;;;;;;;30.70;18.53;;;;;;;1.59;100.00;99874.13;5120187;28;20198;-35
2021/01/07 06:18:29;;;;;;;32.93;19.40;;;;;;;1.55;100.00;99877.41;5119889;28;20255;-35
2021/01/07 06:21:15;;;;;;;29.17;17.93;;;;;;;1.64;100.00;99875.03;5119988;28;20277;-32
2021/01/07 06:24:01;;;;;;;36.03;19.17;;;;;;;1.58;100.00;99877.50;5108185;28;20210;-31
2021/01/07 06:26:47;;;;;;;30.27;18.87;;;;;;;1.71;100.00;99871.81;5118452;28;20247;-35
2021/01/07 06:29:34;;;;;;;31.60;19.23;;;;;;;1.67;100.00;99881.91;5120170;28;20203;-34
2021/01/07 06:32:21;;;;;;;33.97;19.47;;;;;;;1.97;100.00;99879.13;5119655;28;20202;-34
2021/01/07 06:35:09;;;;;;;34.90;20.00;;;;;;;1.86;100.00;99875.47;5119565;28;20252;-35
2021/01/07 06:37:55;;;;;;;31.60;19.77;;;;;;;1.77;100.00;99881.28;5119384;28;20489;-34
2021/01/07 06:40:43;;;;;;;33.83;19.40;;;;;;;1.97;100.00;99882.53;5119130;28;20275;-32
2021/01/07 06:43:31;;;;;;;33.50;18.93;;;;;;;1.56;100.00;99891.03;5119745;28;20202;-33
2021/01/07 06:46:42;;;;;;;29.60;17.57;;;;;;;1.90;100.00;99883.22;5119535;28;20263;-32
2021/01/07 06:49:31;;;;;;;33.40;19.67;;;;;;;1.70;100.00;99884.50;5119149;28;20198;-33
2021/01/07 06:52:21;;;;;;;34.80;19.50;;;;;;;1.67;100.00;99887.00;5119372;28;20477;-35
2021/01/07 06:55:12;;;;;;;27.63;17.93;;;;;;;1.62;100.00;99883.47;5119572;28;20476;-38
2021/01/07 06:57:59;;;;;;;28.33;17.60;;;;;;;1.44;100.00;99881.41;5118903;28;20252;-32
2021/01/07 07:00:50;;;;;;;27.47;17.07;;;;;;;1.59;100.00;99886.00;5118638;28;20392;-35
2021/01/07 07:03:53;;;;;;;28.57;17.57;;;;;;;1.72;100.00;99878.63;5119032;28;20198;-34
2021/01/07 07:06:57;;;;;;;30.73;18.00;;;;;;;1.54;100.00;99885.91;5118886;28;20237;-35
2021/01/07 07:09:45;;;;;;;34.27;18.70;;;;;;;1.45;100.00;99882.28;5119318;28;20245;-34
2021/01/07 07:12:31;;;;;;;32.77;20.10;;;;;;;1.50;100.00;99879.00;5118963;28;20198;-36
2021/01/07 07:15:22;;;;;;;32.77;20.50;;;;;;;1.55;100.00;99886.75;5119056;28;20520;-35
2021/01/07 07:18:09;;;;;;;31.10;18.93;;;;;;;1.46;100.00;99886.53;5119320;28;20257;-37
2021/01/07 07:20:56;;;;;;;37.07;20.67;;;;;;;1.58;100.00;99885.13;5118025;28;20222;-34
2021/01/07 07:24:09;;;;;;;22.97;14.93;;;;;;;1.49;100.00;99892.56;5118563;28;20587;-34
2021/01/07 07:27:03;;;;;;;27.00;16.70;;;;;;;1.73;100.00;99893.09;5118294;28;20317;-36
2021/01/07 07:29:54;;;;;;;28.80;17.87;;;;;;;1.90;100.00;99892.56;5118191;28;20198;-39
2021/01/07 07:32:46;;;;;;;24.03;15.63;;;;;;;1.75;100.00;99899.91;5118610;28;20221;-38
2021/01/07 07:35:43;;;;;;;27.83;16.70;;;;;;;1.99;100.00;99896.19;5118222;28;20199;-37
2021/01/07 07:38:33;;;;;;;27.47;16.77;;;;;;;2.08;100.00;99898.03;5118131;28;20525;-34
2021/01/07 07:41:27;;;;;;;34.37;18.17;;;;;;;2.03;100.00;99900.47;5117955;28;20553;-33
2021/01/07 07:44:15;;;;;;;24.60;16.50;;;;;;;2.04;100.00;99896.25;5117890;28;20202;-34
2021/01/07 07:47:01;;;;;;;24.30;16.90;;;;;;;2.01;100.00;99901.28;5117636;28;20616;-34
2021/01/07 07:49:54;;;;;;;28.30;17.03;;;;;;;1.94;100.00;99900.31;5118014;28;20239;-34
2021/01/07 07:52:40;;;;;;;29.73;15.83;;;;;;;1.92;100.00;99903.66;5117944;28;20191;-36
2021/01/07 07:55:34;;;;;;;24.83;15.90;;;;;;;1.90;100.00;99911.28;5117831;28;20204;-36
2021/01/07 07:58:32;;;;;;;33.83;16.73;;;;;;;1.76;100.00;99910.16;5117501;28;20194;-35
2021/01/07 08:01:42;;;;;;;26.67;15.30;;;;;;;2.01;100.00;99906.38;5097639;28;20656;-35
2021/01/07 08:04:29;;;;;;;25.47;15.37;;;;;;;2.24;100.00;99909.38;5097598;28;20215;-37
2021/01/07 08:07:15;;;;;;;26.20;15.77;;;;;;;1.94;100.00;99910.50;5097219;28;20190;-35
2021/01/07 08:10:06;;;;;;;26.03;14.73;;;;;;;2.24;100.00;99910.22;5096714;28;20203;-38
2021/01/07 08:12:53;;;;;;;26.60;16.53;;;;;;;2.04;100.00;99917.50;5096811;28;20203;-35
2021/01/07 08:15:47;;;;;;;22.63;14.27;;;;;;;2.18;100.00;99924.59;5097140;28;20203;-39
2021/01/07 08:18:35;;;;;;;26.80;16.53;;;;;;;2.15;100.00;99919.41;5097249;28;20344;-36
2021/01/07 08:21:21;;;;;;;28.83;15.70;;;;;;;2.08;100.00;99915.88;5096776;28;20226;-34
2021/01/07 08:24:11;;;;;;;28.90;16.63;;;;;;;2.19;100.00;99927.16;5097060;28;20257;-42
2021/01/07 08:27:16;;;;;;;26.10;15.27;;;;;;;2.33;100.00;99927.41;5102078;28;20226;-33
2021/01/07 08:30:07;;;;;;;30.10;16.20;;;;;;;2.32;100.00;99915.50;5117213;28;20202;-36
2021/01/07 08:32:58;;;;;;;25.77;16.40;;;;;;;2.38;100.00;99920.72;5117410;28;20501;-32
2021/01/07 08:35:45;;;;;;;26.97;15.70;;;;;;;2.30;100.00;99925.66;5116713;28;20269;-34
2021/01/07 08:38:31;;;;;;;22.93;14.47;;;;;;;2.47;100.00;99922.56;5116749;28;20199;-34
2021/01/07 08:41:23;;;;;;;26.80;16.00;;;;;;;2.45;100.00;99924.22;5116878;28;20643;-34
2021/01/07 08:44:09;;;;;;;27.13;16.23;;;;;;;2.41;100.00;99920.75;5116670;28;20603;-32
2021/01/07 08:46:57;;;;;;;25.17;15.33;;;;;;;2.55;100.00;99923.56;5116926;28;20198;-37
2021/01/07 08:49:47;;;;;;;25.53;15.57;;;;;;;2.03;100.00;99922.56;5116577;28;20202;-34
2021/01/07 08:52:48;;;;;;;24.20;14.43;;;;;;;2.24;100.00;99922.13;5116243;28;20230;-35
2021/01/07 08:55:50;;;;;;;22.33;14.40;;;;;;;2.38;100.00;99920.72;5116346;28;20194;-35
2021/01/07 08:58:37;;;;;;;23.10;14.67;;;;;;;2.27;100.00;99917.94;5120867;28;20198;-35
2021/01/07 09:01:31;;;;;;;22.20;14.47;;;;;;;2.62;100.00;99916.03;5119479;28;20226;-34
2021/01/07 09:04:28;;;;;;;24.70;15.63;;;;;;;2.49;100.00;99919.22;5120548;28;20217;-34
2021/01/07 09:07:19;;;;;;;22.07;14.27;;;;;;;2.57;100.00;99911.69;5120450;28;20244;-33
2021/01/07 09:10:07;;;;;;;21.67;14.13;;;;;;;2.64;100.00;99921.16;5120510;28;20249;-32
2021/01/07 09:12:53;;;;;;;24.43;15.07;;;;;;;2.78;100.00;99914.63;5120498;28;20198;-33
2021/01/07 09:15:39;;;;;;;26.00;13.73;;;;;;;2.45;100.00;99914.00;5120613;28;20612;-34
2021/01/07 09:18:25;;;;;;;21.70;14.27;;;;;;;2.54;100.00;99920.16;5120322;28;20198;-36
2021/01/07 09:21:15;;;;;;;22.53;14.57;;;;;;;2.78;100.00;99922.28;5120250;28;20221;-35
2021/01/07 09:24:02;;;;;;;21.97;13.67;;;;;;;2.52;100.00;99916.72;5119334;28;20203;-35
2021/01/07 09:26:48;;;;;;;24.20;14.07;;;;;;;2.60;100.00;99921.97;5120775;28;20294;-32
2021/01/07 09:29:35;;;;;;;23.17;14.57;;;;;;;2.80;100.00;99915.47;5120838;28;20199;-36
2021/01/07 09:32:22;;;;;;;23.63;14.63;;;;;;;3.00;100.00;99913.25;5120267;28;20482;-34
2021/01/07 09:35:11;;;;;;;17.83;13.07;;;;;;;2.48;100.00;99916.63;5120288;28;20195;-37
2021/01/07 09:38:24;;;;;;;26.63;14.60;;;;;;;2.35;100.00;99913.00;5120564;28;20195;-32
2021/01/07 09:41:11;;;;;;;23.63;15.30;;;;;;;2.66;100.00;99911.84;5120381;28;20234;-35
2021/01/07 09:43:57;;;;;;;27.03;16.90;;;;;;;2.81;100.00;99912.09;5119622;28;20191;-33
2021/01/07 09:46:46;;;;;;;27.53;16.43;;;;;;;2.37;100.00;99912.19;5120323;28;20241;-37
2021/01/07 09:49:35;;;;;;;24.93;15.30;;;;;;;2.68;100.00;99912.72;5119283;28;20241;-35
2021/01/07 09:52:21;;;;;;;22.70;15.00;;;;;;;2.81;100.00;99912.09;5119954;28;20643;-35
2021/01/07 09:55:10;;;;;;;24.90;16.37;;;;;;;2.32;100.00;99915.50;5119418;28;20201;-39
2021/01/07 09:57:57;;;;;;;22.47;15.00;;;;;;;2.17;100.00;99917.75;5120014;28;20203;-34
2021/01/07 10:00:43;;;;;;;27.57;17.23;;;;;;;2.20;100.00;99916.09;5119686;28;20217;-36
2021/01/07 10:03:29;;;;;;;25.43;16.83;;;;;;;2.29;100.00;99916.28;5119846;28;20213;-38
2021/01/07 10:06:16;;;;;;;28.13;16.67;;;;;;;2.60;100.00;99911.75;5119822;28;20197;-38
2021/01/07 10:09:02;;;;;;;28.73;17.13;;;;;;;2.50;100.00;99913.28;5117567;28;20233;-36
2021/01/07 10:11:49;;;;;;;32.57;18.43;;;;;;;2.47;100.00;99905.56;5118900;28;20273;-34
2021/01/07 10:14:37;;;;;;;26.67;16.50;;;;;;;2.47;100.00;99909.78;5119645;28;20192;-35
2021/01/07 10:17:23;;;;;;;29.33;17.33;;;;;;;2.45;100.00;99908.91;5119331;28;20578;-35
2021/01/07 10:20:10;;;;;;;22.37;15.07;;;;;;;2.51;100.00;99911.56;5119037;28;20687;-40
2021/01/07 10:22:57;;;;;;;25.80;17.23;;;;;;;2.56;100.00;99904.88;5119534;28;20190;-40
2021/01/07 10:25:46;;;;;;;21.67;14.47;;;;;;;2.61;100.00;99905.78;5119359;28;20199;-38
2021/01/07 10:28:33;;;;;;;23.87;16.50;;;;;;;2.90;100.00;99903.72;5119343;28;20202;-37
2021/01/07 10:31:21;;;;;;;22.43;15.40;;;;;;;2.67;100.00;99896.53;5119007;28;20194;-38
2021/01/07 10:34:12;;;;;;;21.13;14.07;;;;;;;2.46;100.00;99892.75;5118710;28;20197;-40
2021/01/07 10:37:03;;;;;;;17.90;12.93;;;;;;;2.79;100.00;99895.06;5099565;28;20292;-38
2021/01/07 10:39:57;;;;;;;18.33;12.47;;;;;;;2.70;100.00;99888.09;5098484;28;20202;-38
2021/01/07 10:42:48;;;;;;;21.20;13.13;;;;;;;2.66;100.00;99887.16;5115439;28;20210;-37
2021/01/07 10:45:40;;;;;;;18.93;12.27;;;;;;;3.13;100.00;99886.22;5098923;28;20852;-41
2021/01/07 10:48:35;;;;;;;16.87;11.90;;;;;;;2.67;100.00;99882.91;5098143;28;20605;-37
2021/01/07 10:51:38;;;;;;;19.60;13.43;;;;;;;2.97;100.00;99880.88;5098350;28;20636;-39
2021/01/07 10:54:40;;;;;;;19.27;13.40;;;;;;;2.74;100.00;99869.44;5098162;28;20233;-38
2021/01/07 10:57:55;;;;;;;20.57;13.70;;;;;;;2.84;100.00;99870.41;5098259;28;20248;-39
2021/01/07 11:00:56;;;;;;;19.90;13.37;;;;;;;2.96;100.00;99868.94;5097728;28;20288;-36
2021/01/07 11:04:02;;;;;;;22.10;13.63;;;;;;;2.87;100.00;99866.22;5097732;28;20488;-37
2021/01/07 11:07:00;;;;;;;21.37;14.67;;;;;;;3.01;100.00;99868.97;5097919;28;20256;-40
2021/01/07 11:09:51;;;;;;;26.80;15.33;;;;;;;3.04;100.00;99854.56;5098101;28;20198;-36
2021/01/07 11:12:56;;;;;;;22.87;14.00;;;;;;;2.99;100.00;99863.88;5097412;28;20476;-38
2021/01/07 11:15:46;;;;;;;23.57;15.37;;;;;;;2.88;100.00;99855.19;5098158;28;20186;-37
2021/01/07 11:18:39;;;;;;;23.80;14.33;;;;;;;2.84;100.00;99855.97;5097848;28;20206;-39
2021/01/07 11:21:30;;;;;;;21.07;13.63;;;;;;;2.98;100.00;99845.97;5097630;28;20231;-34
2021/01/07 11:24:21;;;;;;;19.57;12.37;;;;;;;3.11;100.00;99841.06;5097790;28;20596;-37
2021/01/07 11:27:10;;;;;;;18.33;11.30;;;;;;;3.16;100.00;99838.56;5096808;28;20199;-39
2021/01/07 11:29:56;;;;;;;20.67;12.80;;;;;;;2.97;100.00;99837.44;5097750;28;20297;-40
2021/01/07 11:32:45;;;;;;;17.93;12.50;;;;;;;2.94;100.00;99832.28;5097237;28;20654;-35
2021/01/07 11:35:32;;;;;;;19.40;11.73;;;;;;;2.80;100.00;99831.19;5097031;28;20191;-39
2021/01/07 11:38:24;;;;;;;20.80;12.90;;;;;;;3.18;100.00;99830.94;5097132;28;20199;-36
2021/01/07 11:41:35;;;;;;;16.60;11.53;;;;;;;3.07;100.00;99834.16;5097045;28;20323;-36
2021/01/07 11:44:36;;;;;;;18.07;11.43;;;;;;;2.68;100.00;99831.03;5097240;28;20199;-37
2021/01/07 11:47:28;;;;;;;19.17;11.97;;;;;;;2.76;100.00;99825.22;5097006;28;20674;-38
2021/01/07 11:50:16;;;;;;;18.70;11.87;;;;;;;3.07;100.00;99825.66;5096954;28;20199;-41
2021/01/07 11:53:06;;;;;;;19.50;12.83;;;;;;;2.80;100.00;99823.53;5097638;28;20526;-36
2021/01/07 11:55:53;;;;;;;19.50;12.77;;;;;;;3.17;100.00;99824.09;5097384;28;20501;-41
2021/01/07 11:58:41;;;;;;;21.43;14.57;;;;;;;3.13;100.00;99815.53;5096696;28;20199;-41
2021/01/07 12:01:31;;;;;;;22.07;14.87;;;;;;;2.95;100.00;99813.56;5096705;28;20380;-38
2021/01/07 12:04:18;;;;;;;24.20;15.43;;;;;;;3.23;100.00;99819.91;5097003;28;20593;-38
2021/01/07 12:07:13;;;;;;;25.03;16.37;;;;;;;3.16;100.00;99807.06;5110516;28;20248;-36
2021/01/07 12:10:02;;;;;;;27.50;16.77;;;;;;;3.27;100.00;99808.91;5117475;28;20190;-40
2021/01/07 12:13:02;;;;;;;29.13;18.03;;;;;;;3.16;100.00;99805.34;5117599;28;20198;-39
2021/01/07 12:15:52;;;;;;;27.33;17.67;;;;;;;3.59;100.00;99800.78;5118034;28;20198;-39
2021/01/07 12:18:43;;;;;;;27.90;18.40;;;;;;;3.27;100.00;99795.25;5117994;28;20241;-40
2021/01/07 12:21:30;;;;;;;30.03;17.93;;;;;;;3.54;100.00;99784.53;5117116;28;20463;-40
2021/01/07 12:24:18;;;;;;;24.13;16.10;;;;;;;3.25;100.00;99786.72;5117801;28;20250;-39
2021/01/07 12:27:07;;;;;;;28.60;18.97;;;;;;;3.42;100.00;99783.50;5116748;28;20280;-41
2021/01/07 12:29:59;;;;;;;30.30;20.10;;;;;;;3.21;100.00;99787.50;5113225;28;20203;-40
2021/01/07 12:32:56;;;;;;;33.37;21.07;;;;;;;3.39;100.00;99790.31;5109499;28;20474;-41
2021/01/07 12:35:51;;;;;;;36.03;23.27;;;;;;;3.06;100.00;99786.47;5117613;28;20217;-40
2021/01/07 12:38:49;;;;;;;33.90;20.17;;;;;;;3.22;100.00;99782.41;5117515;28;20209;-41
2021/01/07 12:41:46;;;;;;;36.17;23.37;;;;;;;3.15;100.00;99787.44;5109427;28;20218;-41
2021/01/07 12:44:33;;;;;;;32.83;20.97;;;;;;;3.28;100.00;99781.63;5117033;28;20198;-39
2021/01/07 12:47:23;;;;;;;35.13;22.27;;;;;;;3.21;100.00;99774.72;5116576;28;20492;-39
2021/01/07 12:50:12;;;;;;;36.77;22.07;;;;;;;3.36;100.00;99774.94;5116212;28;20532;-38
2021/01/07 12:53:00;;;;;;;35.90;21.73;;;;;;;3.43;100.00;99772.44;5103838;28;20287;-41
2021/01/07 12:55:46;;;;;;;35.70;22.83;;;;;;;3.26;100.00;99763.72;5116952;28;20227;-41
2021/01/07 12:58:39;;;;;;;36.07;23.43;;;;;;;3.35;100.00;99763.84;5116265;28;20722;-37